Time;durP1;ratioP1;P1;durP2;ratioP2;P2;SDS_P1;SDS_P2;PMS_P1;PMS_P2;Temp;Humidity;BMP_temperature;BMP_pressure;BME280_temperature;BME280_humidity;BME280_pressure;Samples;Min_cycle;Max_cycle;Signal;HPM_P1;HPM_P2
2024/01/07 00:02:07;;;;;;;27.98;20.27;;;;;;;0.46;100.00;101716.88;4995095;28;20394;-74
2024/01/07 00:04:34;;;;;;;28.48;19.52;;;;;;;0.52;100.00;101727.84;4977212;28;20038;-75
2024/01/07 00:06:59;;;;;;;25.25;17.95;;;;;;;0.56;100.00;101741.38;4995313;28;20022;-74
2024/01/07 00:09:25;;;;;;;26.30;19.40;;;;;;;0.56;100.00;101747.28;4995091;28;20041;-74
2024/01/07 00:11:50;;;;;;;24.50;18.08;;;;;;;0.46;100.00;101724.50;4995047;28;20033;-74
2024/01/07 00:14:16;;;;;;;25.80;19.20;;;;;;;0.34;100.00;101704.28;4977592;28;20034;-74
2024/01/07 00:16:42;;;;;;;24.95;17.35;;;;;;;0.51;100.00;101732.94;4994902;28;20024;-74
2024/01/07 00:19:07;;;;;;;25.30;19.52;;;;;;;0.61;100.00;101747.28;4994827;28;20137;-75
2024/01/07 00:21:33;;;;;;;22.80;17.40;;;;;;;0.60;100.00;101753.22;4994812;28;20060;-74
2024/01/07 00:23:58;;;;;;;23.30;17.67;;;;;;;0.46;100.00;101739.75;4994899;28;20034;-74
2024/01/07 00:26:23;;;;;;;23.60;17.52;;;;;;;0.46;100.00;101744.84;4994639;28;20034;-75
2024/01/07 00:28:48;;;;;;;25.80;18.13;;;;;;;0.55;100.00;101758.31;4994672;28;20022;-75
2024/01/07 00:31:14;;;;;;;22.63;16.70;;;;;;;0.31;100.00;101719.53;4994783;28;20099;-74
2024/01/07 00:33:39;;;;;;;23.55;17.52;;;;;;;0.53;100.00;101759.19;4994734;28;20069;-74
2024/01/07 00:36:05;;;;;;;23.65;17.83;;;;;;;0.58;100.00;101770.16;4994591;28;20033;-75
2024/01/07 00:38:30;;;;;;;23.67;18.05;;;;;;;0.59;100.00;101774.41;4976837;28;20132;-74
2024/01/07 00:40:55;;;;;;;24.35;19.23;;;;;;;0.61;100.00;101771.84;4994400;28;20046;-74
2024/01/07 00:43:21;;;;;;;23.40;17.60;;;;;;;0.58;100.00;101773.53;4994526;28;20030;-74
2024/01/07 00:45:46;;;;;;;22.33;17.50;;;;;;;0.59;100.00;101776.94;4994612;28;20014;-75
2024/01/07 00:48:12;;;;;;;23.23;18.05;;;;;;;0.41;100.00;101757.56;4994387;28;20027;-74
2024/01/07 00:50:37;;;;;;;25.65;19.02;;;;;;;0.54;100.00;101779.50;4994334;28;20057;-74
2024/01/07 00:53:02;;;;;;;24.45;17.73;;;;;;;0.52;100.00;101785.47;4993968;28;20045;-75
2024/01/07 00:55:27;;;;;;;24.38;17.67;;;;;;;0.50;100.00;101782.09;4994289;28;20452;-74
2024/01/07 00:57:53;;;;;;;25.67;18.02;;;;;;;0.46;100.00;101790.56;4994294;28;20058;-75
2024/01/07 01:00:19;;;;;;;23.38;18.35;;;;;;;0.44;100.00;101782.97;4994153;28;20065;-74
2024/01/07 01:02:45;;;;;;;26.85;17.73;;;;;;;0.34;100.00;101776.25;4994189;28;20136;-74
2024/01/07 01:05:10;;;;;;;27.30;20.17;;;;;;;0.36;100.00;101784.69;4993999;28;20037;-74
2024/01/07 01:07:36;;;;;;;27.60;19.10;;;;;;;0.33;100.00;101777.09;4992293;28;20035;-75
2024/01/07 01:10:01;;;;;;;26.63;19.20;;;;;;;0.39;100.00;101789.75;4994092;28;20030;-75
2024/01/07 01:12:26;;;;;;;29.38;20.50;;;;;;;0.39;100.00;101802.44;4994202;28;20124;-75
2024/01/07 01:14:52;;;;;;;26.92;19.30;;;;;;;0.40;100.00;101811.78;4993875;28;20114;-75
2024/01/07 01:17:17;;;;;;;29.38;20.55;;;;;;;0.38;100.00;101800.78;4992579;28;20038;-75
2024/01/07 01:19:42;;;;;;;28.70;20.10;;;;;;;0.40;100.00;101804.16;4993676;28;20033;-75
2024/01/07 01:22:08;;;;;;;28.38;19.52;;;;;;;0.32;100.00;101790.66;4975504;28;20097;-75
2024/01/07 01:24:33;;;;;;;30.48;21.33;;;;;;;0.40;100.00;101811.78;4993519;28;20058;-74
2024/01/07 01:26:58;;;;;;;29.13;20.48;;;;;;;0.43;100.00;101810.94;4993909;28;20117;-74
2024/01/07 01:29:24;;;;;;;29.48;20.92;;;;;;;0.27;100.00;101782.19;4993704;28;20057;-74
2024/01/07 01:31:49;;;;;;;29.02;20.35;;;;;;;0.40;100.00;101806.72;4993843;28;20169;-75
2024/01/07 01:34:14;;;;;;;34.75;23.55;;;;;;;0.36;100.00;101806.72;4993781;28;20034;-76
2024/01/07 01:36:40;;;;;;;33.80;23.35;;;;;;;0.40;100.00;101806.72;4993360;28;20034;-76
2024/01/07 01:39:05;;;;;;;34.15;23.02;;;;;;;0.38;100.00;101807.56;4993498;28;20034;-75
2024/01/07 01:41:32;;;;;;;34.05;22.98;;;;;;;0.37;100.00;101814.31;4993274;28;20042;-75
2024/01/07 01:44:00;;;;;;;34.78;23.58;;;;;;;0.40;100.00;101826.19;4993610;28;20026;-74
2024/01/07 01:46:28;;;;;;;36.33;24.65;;;;;;;0.38;100.00;101821.09;4975837;28;20022;-74
2024/01/07 01:48:54;;;;;;;35.83;23.50;;;;;;;0.39;100.00;101827.03;4993354;28;20026;-75
2024/01/07 01:51:20;;;;;;;39.92;25.52;;;;;;;0.38;100.00;101832.97;4975870;28;20089;-75
2024/01/07 01:53:47;;;;;;;35.47;24.33;;;;;;;0.30;100.00;101825.41;4993423;28;20030;-75
2024/01/07 01:56:13;;;;;;;39.08;25.20;;;;;;;0.25;100.00;101816.94;4993132;28;20489;-76
2024/01/07 01:58:39;;;;;;;35.50;23.50;;;;;;;0.35;100.00;101840.59;4993132;28;20034;-75
2024/01/07 02:01:04;;;;;;;33.90;23.05;;;;;;;0.37;100.00;101849.06;4993081;28;20022;-74
2024/01/07 02:03:30;;;;;;;35.65;23.00;;;;;;;0.24;100.00;101833.88;4993020;28;20038;-74
2024/01/07 02:05:57;;;;;;;32.83;22.20;;;;;;;0.15;100.00;101825.44;4993088;28;20031;-74
2024/01/07 02:08:23;;;;;;;33.88;21.63;;;;;;;0.21;100.00;101828.81;4993144;28;20030;-74
2024/01/07 02:10:48;;;;;;;31.88;21.33;;;;;;;0.31;100.00;101847.41;4993318;28;20026;-74
2024/01/07 02:13:14;;;;;;;34.45;22.83;;;;;;;0.03;100.00;101802.66;4993339;28;20026;-75
2024/01/07 02:15:39;;;;;;;32.00;20.88;;;;;;;0.30;100.00;101853.34;4993173;28;20935;-74
2024/01/07 02:18:05;;;;;;;36.67;23.60;;;;;;;0.28;100.00;101853.31;4992934;28;20037;-74
2024/01/07 02:20:30;;;;;;;37.00;22.00;;;;;;;0.29;100.00;101851.63;4992840;28;20038;-74
2024/01/07 02:22:57;;;;;;;37.22;22.90;;;;;;;0.27;100.00;101851.63;4993040;28;20037;-75
2024/01/07 02:25:23;;;;;;;37.63;24.55;;;;;;;0.20;100.00;101841.53;4992842;28;20374;-75
2024/01/07 02:27:48;;;;;;;38.65;23.17;;;;;;;0.28;100.00;101855.00;4993217;28;20026;-76
2024/01/07 02:30:14;;;;;;;37.85;25.27;;;;;;;0.23;100.00;101844.88;4992799;28;20026;-74
2024/01/07 02:32:39;;;;;;;45.08;26.77;;;;;;;0.30;100.00;101857.56;4992770;28;20355;-74
2024/01/07 02:35:05;;;;;;;43.88;28.77;;;;;;;0.26;100.00;101856.72;4996919;28;20073;-74
2024/01/07 02:37:31;;;;;;;44.17;27.95;;;;;;;0.19;100.00;101847.44;4996935;28;20037;-74
2024/01/07 02:39:56;;;;;;;51.72;31.95;;;;;;;0.11;100.00;101849.19;4996562;28;20109;-74
2024/01/07 02:42:22;;;;;;;49.53;29.50;;;;;;;0.08;100.00;101857.63;4996582;28;20105;-73
2024/01/07 02:44:47;;;;;;;50.80;30.70;;;;;;;0.00;100.00;101839.06;4996860;28;20027;-74
2024/01/07 02:47:12;;;;;;;50.08;28.65;;;;;;;0.07;100.00;101847.47;4996601;28;20034;-74
2024/01/07 02:49:37;;;;;;;51.72;29.83;;;;;;;-0.04;100.00;101838.19;4996759;28;20125;-74
2024/01/07 02:52:03;;;;;;;49.38;29.70;;;;;;;0.02;100.00;101847.50;4996570;28;20054;-75
2024/01/07 02:54:28;;;;;;;51.38;30.23;;;;;;;0.18;100.00;101873.69;4996637;28;20483;-74
2024/01/07 02:56:54;;;;;;;52.58;31.17;;;;;;;0.19;100.00;101878.75;4996407;28;20023;-75
2024/01/07 02:59:20;;;;;;;55.50;31.10;;;;;;;0.10;100.00;101866.13;4996438;28;20038;-76
2024/01/07 03:01:46;;;;;;;58.45;33.35;;;;;;;0.10;100.00;101868.66;4996304;28;20038;-76
2024/01/07 03:04:13;;;;;;;54.00;31.48;;;;;;;0.17;100.00;101875.38;4996217;28;20026;-74
2024/01/07 03:06:39;;;;;;;53.92;31.15;;;;;;;0.19;100.00;101877.91;4996270;28;20034;-75
2024/01/07 03:09:04;;;;;;;55.13;31.60;;;;;;;0.24;100.00;101876.22;4996259;28;20022;-74
2024/01/07 03:11:29;;;;;;;55.97;32.03;;;;;;;0.23;100.00;101884.69;4996240;28;20030;-74
2024/01/07 03:13:56;;;;;;;52.30;30.23;;;;;;;0.23;100.00;101884.69;4995995;28;20467;-74
2024/01/07 03:16:22;;;;;;;47.13;29.08;;;;;;;0.26;100.00;101889.75;4996166;28;20073;-74
2024/01/07 03:18:47;;;;;;;51.45;31.13;;;;;;;0.02;100.00;101849.22;4996115;28;20033;-74
2024/01/07 03:21:20;;;;;;;48.22;29.20;;;;;;;0.27;100.00;101891.44;4996186;28;20097;-74
2024/01/07 03:23:46;;;;;;;45.85;29.20;;;;;;;0.16;100.00;101880.47;4996049;28;20033;-74
2024/01/07 03:26:12;;;;;;;44.55;28.20;;;;;;;0.26;100.00;101900.75;4995869;28;20027;-74
2024/01/07 03:28:38;;;;;;;47.50;29.88;;;;;;;0.24;100.00;101896.53;4995957;28;20028;-75
2024/01/07 03:31:25;;;;;;;46.67;29.75;;;;;;;0.25;100.00;101903.31;4995649;28;20026;-74
2024/01/07 03:33:50;;;;;;;44.05;30.05;;;;;;;0.22;100.00;101898.25;4995147;28;20048;-75
2024/01/07 03:36:15;;;;;;;43.33;26.45;;;;;;;0.21;100.00;101904.19;4995792;28;20110;-74
2024/01/07 03:38:41;;;;;;;39.55;26.30;;;;;;;-0.01;100.00;101865.28;4995732;28;20028;-74
2024/01/07 03:41:07;;;;;;;39.58;25.63;;;;;;;0.15;100.00;101896.56;4995147;28;20047;-74
2024/01/07 03:43:32;;;;;;;38.03;24.67;;;;;;;0.12;100.00;101904.19;4995438;28;20026;-74
2024/01/07 03:45:58;;;;;;;39.83;26.75;;;;;;;0.11;100.00;101913.50;4995439;28;20028;-74
2024/01/07 03:48:24;;;;;;;39.35;25.30;;;;;;;0.11;100.00;101917.75;4995558;28;20085;-73
2024/01/07 03:50:50;;;;;;;40.85;25.40;;;;;;;0.10;100.00;101910.94;4995438;28;20030;-74
2024/01/07 03:53:16;;;;;;;39.28;27.55;;;;;;;0.15;100.00;101919.41;4995532;28;20033;-74
2024/01/07 03:55:41;;;;;;;40.28;26.20;;;;;;;0.19;100.00;101921.94;4995148;28;20022;-74
2024/01/07 03:58:07;;;;;;;37.17;24.80;;;;;;;0.22;100.00;101919.41;4995339;28;20030;-74
2024/01/07 04:00:32;;;;;;;42.40;27.00;;;;;;;0.25;100.00;101921.09;4995235;28;20471;-74
2024/01/07 04:02:58;;;;;;;40.80;27.33;;;;;;;0.26;100.00;101928.69;4995268;28;20154;-74
2024/01/07 04:05:23;;;;;;;39.92;25.25;;;;;;;0.28;100.00;101923.59;4995266;28;20026;-74
2024/01/07 04:07:48;;;;;;;40.53;26.02;;;;;;;0.27;100.00;101932.94;4995341;28;20035;-74
2024/01/07 04:10:16;;;;;;;41.88;26.80;;;;;;;0.26;100.00;101936.31;4995078;28;20053;-73
2024/01/07 04:12:41;;;;;;;41.70;26.10;;;;;;;0.27;100.00;101939.69;4995061;28;20606;-74
2024/01/07 04:15:07;;;;;;;40.33;25.15;;;;;;;0.26;100.00;101940.56;4995153;28;20080;-73
2024/01/07 04:17:32;;;;;;;39.63;25.35;;;;;;;0.20;100.00;101930.44;4995006;28;20027;-74
2024/01/07 04:19:58;;;;;;;42.30;25.40;;;;;;;0.23;100.00;101938.88;4994952;28;20393;-74
2024/01/07 04:22:23;;;;;;;44.13;26.73;;;;;;;0.22;100.00;101944.81;4995014;28;20022;-74
2024/01/07 04:24:48;;;;;;;44.58;25.70;;;;;;;0.18;100.00;101947.34;4995011;28;20106;-74
2024/01/07 04:27:13;;;;;;;42.22;27.17;;;;;;;0.16;100.00;101946.50;4994739;28;20092;-73
2024/01/07 04:29:39;;;;;;;41.65;25.75;;;;;;;0.15;100.00;101948.19;4994915;28;20034;-73
2024/01/07 04:32:04;;;;;;;40.63;26.10;;;;;;;0.05;100.00;101935.53;4994516;28;20570;-74
2024/01/07 04:34:29;;;;;;;41.38;25.95;;;;;;;0.14;100.00;101961.75;4994938;28;20023;-74
2024/01/07 04:36:55;;;;;;;40.47;25.27;;;;;;;0.14;100.00;101964.28;4994645;28;20027;-74
2024/01/07 04:39:20;;;;;;;41.72;26.15;;;;;;;-0.03;100.00;101935.53;4994347;28;20474;-74
2024/01/07 04:41:46;;;;;;;39.20;25.33;;;;;;;0.06;100.00;101955.84;4994525;28;20109;-73
2024/01/07 04:44:11;;;;;;;33.60;23.45;;;;;;;0.14;100.00;101977.00;4994529;28;20504;-73
2024/01/07 04:46:40;;;;;;;39.25;24.90;;;;;;;0.13;100.00;101975.31;4994372;28;20085;-74
2024/01/07 04:49:06;;;;;;;32.92;21.80;;;;;;;0.13;100.00;101979.53;4994429;28;20036;-73
2024/01/07 04:51:32;;;;;;;31.95;22.23;;;;;;;0.11;100.00;101974.47;4994444;28;20109;-76
2024/01/07 04:53:57;;;;;;;32.22;21.75;;;;;;;0.10;100.00;101982.94;4994500;28;20037;-76
2024/01/07 04:56:23;;;;;;;31.23;21.73;;;;;;;0.04;100.00;101975.31;4993520;28;20117;-74
2024/01/07 04:58:48;;;;;;;33.47;23.63;;;;;;;-0.15;100.00;101940.63;4994285;28;20022;-74
2024/01/07 05:01:14;;;;;;;31.00;22.10;;;;;;;-0.20;100.00;101938.09;4994298;28;20026;-73
2024/01/07 05:03:39;;;;;;;31.75;22.05;;;;;;;-0.04;100.00;101966.84;4994009;28;20101;-74
2024/01/07 05:06:05;;;;;;;27.83;19.92;;;;;;;0.06;100.00;101985.47;4994108;28;20034;-75
2024/01/07 05:08:30;;;;;;;29.77;20.20;;;;;;;-0.01;100.00;101977.00;4994247;28;20057;-75
2024/01/07 05:10:55;;;;;;;31.58;21.98;;;;;;;-0.04;100.00;101982.09;4960070;28;20041;-75
2024/01/07 05:13:21;;;;;;;27.90;19.30;;;;;;;-0.08;100.00;101972.78;4994101;28;20030;-74
2024/01/07 05:15:53;;;;;;;28.08;19.85;;;;;;;-0.02;100.00;101990.53;4994114;28;20035;-75
2024/01/07 05:18:18;;;;;;;;;;;;;;;0.08;100.00;101989.69;4994327;28;20022;-74
2024/01/07 05:20:43;;;;;;;25.70;20.35;;;;;;;-0.05;100.00;101998.16;4993739;28;19913;-74
2024/01/07 05:23:09;;;;;;;26.38;18.00;;;;;;;-0.09;100.00;102007.50;4994048;28;20101;-74
2024/01/07 05:25:34;;;;;;;25.70;18.95;;;;;;;-0.16;100.00;102008.31;4993770;28;20470;-74
2024/01/07 05:28:00;;;;;;;25.60;18.45;;;;;;;-0.15;100.00;102004.09;4993824;28;20038;-74
2024/01/07 05:30:25;;;;;;;25.27;18.50;;;;;;;-0.14;100.00;102014.25;4993596;28;20050;-75
2024/01/07 05:32:50;;;;;;;25.65;19.00;;;;;;;-0.34;100.00;101988.84;4975756;28;20074;-75
2024/01/07 05:35:15;;;;;;;23.55;18.60;;;;;;;-0.21;100.00;102011.69;4993418;28;20057;-74
2024/01/07 05:37:41;;;;;;;23.38;18.23;;;;;;;-0.21;100.00;102007.47;4993581;28;20022;-75
2024/01/07 05:40:07;;;;;;;26.65;20.20;;;;;;;-0.11;100.00;102024.41;4993457;28;20510;-75
2024/01/07 05:42:32;;;;;;;23.00;17.88;;;;;;;-0.24;100.00;102010.00;4993571;28;20029;-76
2024/01/07 05:44:58;;;;;;;24.30;18.67;;;;;;;-0.12;100.00;102030.31;4993420;28;20026;-75
2024/01/07 05:47:23;;;;;;;25.30;19.25;;;;;;;-0.16;100.00;102037.94;4993454;28;20368;-74
2024/01/07 05:49:48;;;;;;;23.25;18.70;;;;;;;-0.12;100.00;102039.63;4993350;28;20022;-74
2024/01/07 05:52:13;;;;;;;23.83;18.67;;;;;;;-0.14;100.00;102039.63;4991779;28;20092;-75
2024/01/07 05:54:40;;;;;;;24.73;19.15;;;;;;;-0.12;100.00;102052.31;4993351;28;20029;-74
2024/01/07 05:57:05;;;;;;;24.15;17.83;;;;;;;-0.12;100.00;102049.78;4993164;28;20033;-75
2024/01/07 05:59:30;;;;;;;24.83;18.90;;;;;;;-0.12;100.00;102049.78;4993145;28;20030;-75
2024/01/07 06:01:59;;;;;;;23.95;19.30;;;;;;;-0.23;100.00;102036.25;4992942;28;20457;-75
2024/01/07 06:04:24;;;;;;;24.27;18.08;;;;;;;-0.12;100.00;102054.88;4993096;28;20022;-76
2024/01/07 06:06:49;;;;;;;25.20;19.17;;;;;;;-0.13;100.00;102059.09;4993495;28;20030;-74
2024/01/07 06:09:15;;;;;;;25.98;20.58;;;;;;;-0.26;100.00;102039.63;4993285;28;20030;-74
2024/01/07 06:11:40;;;;;;;27.38;20.35;;;;;;;-0.16;100.00;102054.03;4993270;28;20042;-74
2024/01/07 06:14:06;;;;;;;25.80;20.10;;;;;;;-0.31;100.00;102038.75;4993227;28;20030;-74
2024/01/07 06:16:31;;;;;;;25.80;19.25;;;;;;;-0.18;100.00;102062.50;4992868;28;20037;-74
2024/01/07 06:18:56;;;;;;;27.52;22.23;;;;;;;-0.12;100.00;102075.19;4991323;28;20042;-74
2024/01/07 06:21:25;;;;;;;28.25;21.88;;;;;;;-0.23;100.00;102056.56;4993226;28;20030;-73
2024/01/07 06:23:50;;;;;;;29.35;21.55;;;;;;;-0.22;100.00;102064.16;4993120;28;20041;-73
2024/01/07 06:26:16;;;;;;;29.98;22.40;;;;;;;-0.19;100.00;102069.25;4993192;28;20027;-73
2024/01/07 06:28:41;;;;;;;27.83;21.35;;;;;;;-0.11;100.00;102081.94;4975407;28;20038;-74
2024/01/07 06:31:06;;;;;;;30.20;21.48;;;;;;;-0.12;100.00;102093.78;4991434;28;20038;-75
2024/01/07 06:33:32;;;;;;;31.38;23.42;;;;;;;-0.12;100.00;102100.56;4992874;28;20030;-74
2024/01/07 06:35:57;;;;;;;28.55;21.42;;;;;;;-0.19;100.00;102091.25;4993124;28;20042;-76
2024/01/07 06:38:23;;;;;;;29.55;22.55;;;;;;;-0.12;100.00;102100.56;4993020;28;20467;-74
2024/01/07 06:40:49;;;;;;;29.10;22.25;;;;;;;-0.24;100.00;102086.16;4992465;28;20141;-73
2024/01/07 06:43:14;;;;;;;28.73;21.90;;;;;;;-0.13;100.00;102109.88;4992929;28;20070;-74
2024/01/07 06:45:39;;;;;;;30.58;22.17;;;;;;;-0.23;100.00;102103.09;4992837;28;20113;-74
2024/01/07 06:48:05;;;;;;;28.70;22.30;;;;;;;-0.19;100.00;102124.25;4992757;28;20026;-74
2024/01/07 06:50:30;;;;;;;28.42;20.77;;;;;;;-0.22;100.00;102131.84;4992573;28;20034;-74
2024/01/07 06:52:56;;;;;;;28.30;21.27;;;;;;;-0.20;100.00;102132.69;4993095;28;20034;-74
2024/01/07 06:55:22;;;;;;;27.58;20.17;;;;;;;-0.23;100.00;102136.09;4992908;28;20038;-74
2024/01/07 06:57:47;;;;;;;29.70;21.83;;;;;;;-0.21;100.00;102136.09;4992665;28;20030;-75
2024/01/07 07:00:13;;;;;;;27.92;21.23;;;;;;;-0.21;100.00;102142.00;4992785;28;20026;-75
2024/01/07 07:02:39;;;;;;;28.63;23.38;;;;;;;-0.22;100.00;102137.78;4992628;28;20030;-75
2024/01/07 07:05:04;;;;;;;26.50;21.00;;;;;;;-0.30;100.00;102127.59;4992812;28;20026;-76
2024/01/07 07:07:29;;;;;;;27.38;21.08;;;;;;;-0.22;100.00;102145.38;4992914;28;20061;-76
2024/01/07 07:09:55;;;;;;;27.05;21.30;;;;;;;-0.23;100.00;102143.69;4992678;28;20041;-74
2024/01/07 07:12:20;;;;;;;28.30;21.67;;;;;;;-0.22;100.00;102144.53;4992804;28;20031;-74
2024/01/07 07:14:46;;;;;;;27.75;21.75;;;;;;;-0.23;100.00;102155.53;4992748;28;20027;-74
2024/01/07 07:17:12;;;;;;;25.15;20.80;;;;;;;-0.24;100.00;102157.25;4992596;28;20359;-72
2024/01/07 07:19:38;;;;;;;27.10;21.35;;;;;;;-0.30;100.00;102147.06;4993530;28;20061;-72
2024/01/07 07:22:04;;;;;;;23.60;20.42;;;;;;;-0.22;100.00;102165.69;4996174;28;20110;-71
2024/01/07 07:24:29;;;;;;;22.63;17.75;;;;;;;-0.32;100.00;102156.38;4996030;28;20439;-72
2024/01/07 07:26:54;;;;;;;21.08;16.88;;;;;;;-0.22;100.00;102172.47;4995785;28;20069;-73
2024/01/07 07:29:20;;;;;;;20.10;15.05;;;;;;;-0.24;100.00;102169.09;4996024;28;20030;-72
2024/01/07 07:31:45;;;;;;;21.55;15.15;;;;;;;-0.24;100.00;102176.69;4995851;28;20117;-74
2024/01/07 07:34:11;;;;;;;21.73;16.42;;;;;;;-0.24;100.00;102195.31;4995577;28;20042;-74
2024/01/07 07:36:37;;;;;;;19.88;15.80;;;;;;;-0.26;100.00;102193.63;4995870;28;20033;-76
2024/01/07 07:39:02;;;;;;;19.48;15.60;;;;;;;-0.28;100.00;102191.09;4995778;28;20026;-74
2024/01/07 07:41:28;;;;;;;20.40;15.32;;;;;;;-0.37;100.00;102175.81;4995482;28;20051;-75
2024/01/07 07:43:54;;;;;;;20.48;15.65;;;;;;;-0.25;100.00;102208.84;4995771;28;20022;-75
2024/01/07 07:46:19;;;;;;;19.95;15.57;;;;;;;-0.32;100.00;102199.50;4995786;28;20226;-74
2024/01/07 07:48:45;;;;;;;19.45;15.50;;;;;;;-0.22;100.00;102228.31;4995564;28;20415;-75
2024/01/07 07:51:10;;;;;;;19.08;16.40;;;;;;;-0.25;100.00;102223.22;4995252;28;20026;-72
2024/01/07 07:53:39;;;;;;;20.58;16.58;;;;;;;-0.42;100.00;102197.78;5001984;28;20112;-74
2024/01/07 07:56:04;;;;;;;19.10;14.57;;;;;;;-0.26;100.00;102219.00;5015748;28;20026;-68
2024/01/07 07:58:30;;;;;;;21.45;15.93;;;;;;;-0.25;100.00;102235.94;5015017;28;20489;-71
2024/01/07 08:00:55;;;;;;;19.30;15.38;;;;;;;-0.28;100.00;102233.38;5014848;28;20088;-72
2024/01/07 08:03:20;;;;;;;17.90;14.35;;;;;;;-0.31;100.00;102242.66;5014838;28;20030;-70
2024/01/07 08:05:46;;;;;;;21.85;16.60;;;;;;;-0.56;100.00;102201.94;5014437;28;20033;-71
2024/01/07 08:08:11;;;;;;;22.05;15.93;;;;;;;-0.35;100.00;102240.97;5014630;28;20038;-71
2024/01/07 08:10:36;;;;;;;20.25;16.05;;;;;;;-0.35;100.00;102243.50;5014735;28;20025;-71
2024/01/07 08:13:02;;;;;;;21.50;16.48;;;;;;;-0.50;100.00;102217.19;5014802;28;20033;-72
2024/01/07 08:15:27;;;;;;;20.00;16.08;;;;;;;-0.34;100.00;102255.34;5014766;28;20397;-71
2024/01/07 08:17:52;;;;;;;19.80;16.67;;;;;;;-0.46;100.00;102237.53;5014578;28;20084;-71
2024/01/07 08:20:19;;;;;;;20.08;15.82;;;;;;;-0.34;100.00;102254.50;5014189;28;20053;-71
2024/01/07 08:22:44;;;;;;;19.83;14.98;;;;;;;-0.34;100.00;102257.03;5014281;28;20056;-72
2024/01/07 08:25:09;;;;;;;21.08;15.70;;;;;;;-0.35;100.00;102262.97;5014611;28;20045;-70
2024/01/07 08:27:37;;;;;;;19.30;15.05;;;;;;;-0.31;100.00;102265.50;5014610;28;20026;-72
2024/01/07 08:30:03;;;;;;;19.88;15.65;;;;;;;-0.43;100.00;102257.84;5014345;28;20053;-72
2024/01/07 08:32:28;;;;;;;17.25;14.27;;;;;;;-0.43;100.00;102262.06;5014363;28;20057;-71
2024/01/07 08:34:53;;;;;;;19.73;14.82;;;;;;;-0.35;100.00;102278.19;5014126;28;20026;-70
2024/01/07 08:37:18;;;;;;;17.83;14.93;;;;;;;-0.40;100.00;102275.59;5013957;28;20030;-71
2024/01/07 08:39:44;;;;;;;18.75;15.10;;;;;;;-0.34;100.00;102282.41;5014047;28;20042;-72
2024/01/07 08:42:09;;;;;;;19.38;14.38;;;;;;;-0.48;100.00;102262.06;5014190;28;20045;-72
2024/01/07 08:44:35;;;;;;;18.65;15.30;;;;;;;-0.36;100.00;102284.09;5014128;28;20034;-73
2024/01/07 08:47:00;;;;;;;19.00;14.68;;;;;;;-0.35;100.00;102286.66;5013982;28;20040;-71
2024/01/07 08:49:27;;;;;;;17.65;13.65;;;;;;;-0.32;100.00;102288.34;5000270;28;20022;-72
2024/01/07 08:51:53;;;;;;;17.48;13.40;;;;;;;-0.35;100.00;102296.78;4993994;28;20113;-73
2024/01/07 08:54:18;;;;;;;17.52;13.35;;;;;;;-0.34;100.00;102305.25;4994413;28;20058;-73
2024/01/07 08:56:44;;;;;;;15.85;12.65;;;;;;;-0.62;100.00;102261.09;4994364;28;20042;-73
2024/01/07 08:59:10;;;;;;;16.85;12.80;;;;;;;-0.62;100.00;102264.50;4994095;28;20033;-74
2024/01/07 09:01:36;;;;;;;17.00;14.10;;;;;;;-0.42;100.00;102306.91;4994156;28;20026;-74
2024/01/07 09:04:01;;;;;;;16.60;13.32;;;;;;;-0.41;100.00;102295.91;4994053;28;20434;-73
2024/01/07 09:06:26;;;;;;;16.70;13.95;;;;;;;-0.46;100.00;102295.88;4992765;28;20028;-74
2024/01/07 09:08:52;;;;;;;17.98;14.77;;;;;;;-0.28;100.00;102322.22;4994394;28;20027;-73
2024/01/07 09:11:20;;;;;;;16.85;14.15;;;;;;;-0.40;100.00;102311.13;4993940;28;20390;-72
2024/01/07 09:13:48;;;;;;;17.48;14.07;;;;;;;-0.33;100.00;102338.25;4993915;28;20055;-73
2024/01/07 09:16:13;;;;;;;14.95;12.70;;;;;;;-0.43;100.00;102328.88;4993902;28;20364;-75
2024/01/07 09:18:39;;;;;;;14.95;13.05;;;;;;;-0.35;100.00;102339.94;4993580;28;20023;-73
2024/01/07 09:21:04;;;;;;;14.02;12.15;;;;;;;-0.41;100.00;102347.50;4993631;28;20037;-73
2024/01/07 09:23:30;;;;;;;14.73;12.52;;;;;;;-0.39;100.00;102353.47;4993591;28;20030;-74
2024/01/07 09:25:55;;;;;;;14.00;11.68;;;;;;;-0.59;100.00;102327.97;4993721;28;20110;-74
2024/01/07 09:28:20;;;;;;;13.52;12.00;;;;;;;-0.66;100.00;102332.97;4992408;28;20032;-71
2024/01/07 09:30:46;;;;;;;13.88;12.18;;;;;;;-0.47;100.00;102366.94;4993483;28;20026;-74
2024/01/07 09:33:11;;;;;;;14.15;11.75;;;;;;;-0.46;100.00;102374.56;4993434;28;20383;-76
2024/01/07 09:35:36;;;;;;;12.73;11.32;;;;;;;-0.50;100.00;102377.88;4993364;28;20033;-78
2024/01/07 09:38:02;;;;;;;14.15;11.73;;;;;;;-0.50;100.00;102385.50;4993298;28;20033;-74
2024/01/07 09:40:27;;;;;;;14.07;12.15;;;;;;;-0.63;100.00;102363.41;5001501;28;20069;-79
2024/01/07 09:42:53;;;;;;;13.23;11.82;;;;;;;-0.54;100.00;102380.41;5012623;28;20029;-79
2024/01/07 09:45:19;;;;;;;14.38;12.13;;;;;;;-0.50;100.00;102385.50;5013033;28;20041;-73
2024/01/07 09:47:45;;;;;;;13.32;11.82;;;;;;;-0.64;100.00;102364.25;5012997;28;20034;-75
2024/01/07 09:50:12;;;;;;;14.20;12.68;;;;;;;-0.44;100.00;102389.78;4999913;28;20030;-75
2024/01/07 09:52:42;;;;;;;14.82;13.00;;;;;;;-0.52;100.00;102386.34;4993240;28;20463;-75
2024/01/07 09:55:09;;;;;;;13.38;11.80;;;;;;;-0.75;100.00;102348.13;4993257;28;20397;-75
2024/01/07 09:57:34;;;;;;;14.80;12.38;;;;;;;-0.48;100.00;102399.06;4993418;28;20031;-74
2024/01/07 10:00:01;;;;;;;15.55;12.50;;;;;;;-0.54;100.00;102413.41;4993139;28;20479;-74
2024/01/07 10:02:27;;;;;;;17.05;13.50;;;;;;;-0.58;100.00;102412.53;4993636;28;20039;-73
2024/01/07 10:04:52;;;;;;;14.45;12.55;;;;;;;-0.59;100.00;102413.34;4993292;28;20031;-72
2024/01/07 10:07:17;;;;;;;14.50;12.40;;;;;;;-0.67;100.00;102402.31;5009778;28;20021;-70
2024/01/07 10:09:43;;;;;;;14.10;12.02;;;;;;;-0.62;100.00;102414.16;5011937;28;20107;-71
2024/01/07 10:12:08;;;;;;;14.15;12.65;;;;;;;-0.59;100.00;102424.38;5012603;28;20026;-70
2024/01/07 10:14:34;;;;;;;15.45;13.00;;;;;;;-0.57;100.00;102426.91;5012523;28;20099;-71
2024/01/07 10:17:00;;;;;;;15.27;13.32;;;;;;;-0.56;100.00;102426.06;5012697;28;20385;-70
2024/01/07 10:19:25;;;;;;;15.27;12.63;;;;;;;-0.79;100.00;102392.03;5012694;28;20033;-72
2024/01/07 10:22:01;;;;;;;14.57;12.73;;;;;;;-0.55;100.00;102430.31;5012436;28;20034;-71
2024/01/07 10:24:26;;;;;;;16.60;12.90;;;;;;;-0.57;100.00;102429.44;5012532;28;20104;-70
2024/01/07 10:26:52;;;;;;;16.23;13.35;;;;;;;-0.61;100.00;102431.09;5012497;28;20113;-72
2024/01/07 10:29:17;;;;;;;14.88;13.10;;;;;;;-0.65;100.00;102434.44;5012337;28;20359;-71
2024/01/07 10:31:43;;;;;;;15.95;13.80;;;;;;;-0.75;100.00;102419.13;5012522;28;20030;-75
2024/01/07 10:34:13;;;;;;;15.20;13.48;;;;;;;-0.69;100.00;102439.47;5012682;28;20492;-77
2024/01/07 10:36:39;;;;;;;14.68;12.27;;;;;;;-0.69;100.00;102440.34;5012437;28;20029;-74
2024/01/07 10:39:05;;;;;;;16.05;12.85;;;;;;;-0.71;100.00;102426.78;5012320;28;20022;-74
2024/01/07 10:41:31;;;;;;;16.80;13.55;;;;;;;-0.75;100.00;102419.13;5012398;28;20433;-78
2024/01/07 10:43:57;;;;;;;15.32;12.93;;;;;;;-0.60;100.00;102440.41;5012370;28;20536;-77
2024/01/07 10:46:26;;;;;;;16.23;12.52;;;;;;;-0.78;100.00;102383.59;5012519;28;20026;-77
2024/01/07 10:49:00;;;;;;;17.42;13.00;;;;;;;-0.52;100.00;102409.19;5012383;28;20381;-77
2024/01/07 10:51:28;;;;;;;13.70;12.20;;;;;;;-0.30;100.00;102432.19;5012435;28;20030;-77
2024/01/07 10:53:55;;;;;;;16.58;13.45;;;;;;;-0.45;100.00;102406.69;5012733;28;20500;-76
2024/01/07 10:56:24;;;;;;;14.80;12.45;;;;;;;-0.27;100.00;102439.00;5015912;28;20061;-73
2024/01/07 10:58:54;;;;;;;14.27;12.32;;;;;;;-0.24;100.00;102431.41;5016217;28;20034;-74